sensor_id;sensor_type;location;lat;lon;timestamp;pressure;altitude;pressure_sealevel;temperature;humidity
78073;BME280;67281;48.770;11.440;2023-12-22T00:00:36;95694.84;;;13.46;52.49
78073;BME280;67281;48.770;11.440;2023-12-22T00:03:03;95674.63;;;13.47;52.49
78073;BME280;67281;48.770;11.440;2023-12-22T00:05:30;95663.75;;;13.42;52.62
78073;BME280;67281;48.770;11.440;2023-12-22T00:07:57;95668.03;;;13.43;52.65
78073;BME280;67281;48.770;11.440;2023-12-22T00:10:24;95663.75;;;13.50;52.48
78073;BME280;67281;48.770;11.440;2023-12-22T00:12:51;95669.03;;;13.50;52.10
78073;BME280;67281;48.770;11.440;2023-12-22T00:15:17;95671.16;;;13.46;52.72
78073;BME280;67281;48.770;11.440;2023-12-22T00:17:44;95671.97;;;13.47;52.44
78073;BME280;67281;48.770;11.440;2023-12-22T00:20:12;95670.84;;;13.49;52.74
78073;BME280;67281;48.770;11.440;2023-12-22T00:22:41;95661.47;;;13.47;52.66
78073;BME280;67281;48.770;11.440;2023-12-22T00:25:08;95676.59;;;13.45;52.10
78073;BME280;67281;48.770;11.440;2023-12-22T00:27:36;95701.44;;;13.51;52.53
78073;BME280;67281;48.770;11.440;2023-12-22T00:30:03;95695.50;;;13.48;52.07
78073;BME280;67281;48.770;11.440;2023-12-22T00:32:30;95707.34;;;13.53;52.25
78073;BME280;67281;48.770;11.440;2023-12-22T00:34:57;95704.22;;;13.49;52.11
78073;BME280;67281;48.770;11.440;2023-12-22T00:37:25;95678.22;;;13.46;52.02
78073;BME280;67281;48.770;11.440;2023-12-22T00:39:52;95677.56;;;13.44;52.69
78073;BME280;67281;48.770;11.440;2023-12-22T00:42:21;95708.50;;;13.42;52.19
78073;BME280;67281;48.770;11.440;2023-12-22T00:44:48;95706.34;;;13.37;52.54
78073;BME280;67281;48.770;11.440;2023-12-22T00:47:15;95703.53;;;13.39;52.78
78073;BME280;67281;48.770;11.440;2023-12-22T00:49:42;95714.25;;;13.45;52.08
78073;BME280;67281;48.770;11.440;2023-12-22T00:52:09;95704.22;;;13.49;51.90
78073;BME280;67281;48.770;11.440;2023-12-22T00:54:36;95693.38;;;13.52;52.29
78073;BME280;67281;48.770;11.440;2023-12-22T00:57:03;95709.16;;;13.52;52.49
78073;BME280;67281;48.770;11.440;2023-12-22T00:59:30;95705.03;;;13.49;51.99
78073;BME280;67281;48.770;11.440;2023-12-22T01:01:57;95710.81;;;13.53;52.07
78073;BME280;67281;48.770;11.440;2023-12-22T01:04:24;95727.25;;;13.55;52.12
78073;BME280;67281;48.770;11.440;2023-12-22T01:06:51;95731.03;;;13.53;52.47
78073;BME280;67281;48.770;11.440;2023-12-22T01:09:19;95729.06;;;13.55;51.64
78073;BME280;67281;48.770;11.440;2023-12-22T01:11:46;95719.53;;;13.54;52.45
78073;BME280;67281;48.770;11.440;2023-12-22T01:14:14;95724.94;;;13.52;52.30
78073;BME280;67281;48.770;11.440;2023-12-22T01:16:40;95710.97;;;13.52;52.37
78073;BME280;67281;48.770;11.440;2023-12-22T01:19:07;95704.88;;;13.51;52.30
78073;BME280;67281;48.770;11.440;2023-12-22T01:21:34;95700.09;;;13.46;52.72
78073;BME280;67281;48.770;11.440;2023-12-22T01:24:01;95703.56;;;13.47;52.00
78073;BME280;67281;48.770;11.440;2023-12-22T01:26:28;95700.28;;;13.45;51.98
78073;BME280;67281;48.770;11.440;2023-12-22T01:28:55;95716.22;;;13.52;52.15
78073;BME280;67281;48.770;11.440;2023-12-22T01:31:22;95707.19;;;13.54;51.80
78073;BME280;67281;48.770;11.440;2023-12-22T01:33:49;95703.56;;;13.47;51.86
78073;BME280;67281;48.770;11.440;2023-12-22T01:36:15;95723.31;;;13.51;51.94
78073;BME280;67281;48.770;11.440;2023-12-22T01:38:42;95710.31;;;13.49;51.94
78073;BME280;67281;48.770;11.440;2023-12-22T01:41:09;95722.16;;;13.54;52.24
78073;BME280;67281;48.770;11.440;2023-12-22T01:43:36;95708.00;;;13.55;52.19
78073;BME280;67281;48.770;11.440;2023-12-22T01:46:03;95710.63;;;13.55;52.30
78073;BME280;67281;48.770;11.440;2023-12-22T01:48:31;95724.13;;;13.52;52.62
78073;BME280;67281;48.770;11.440;2023-12-22T01:51:00;95740.72;;;13.52;52.09
78073;BME280;67281;48.770;11.440;2023-12-22T01:53:28;95728.56;;;13.51;52.07
78073;BME280;67281;48.770;11.440;2023-12-22T01:55:55;95728.88;;;13.48;52.49
78073;BME280;67281;48.770;11.440;2023-12-22T01:58:23;95728.72;;;13.49;52.39
78073;BME280;67281;48.770;11.440;2023-12-22T02:00:52;95729.72;;;13.48;52.44
78073;BME280;67281;48.770;11.440;2023-12-22T02:03:21;95735.78;;;13.49;52.58
78073;BME280;67281;48.770;11.440;2023-12-22T02:05:48;95732.50;;;13.47;52.23
78073;BME280;67281;48.770;11.440;2023-12-22T02:08:18;95743.66;;;13.41;52.59
78073;BME280;67281;48.770;11.440;2023-12-22T02:10:45;95720.66;;;13.43;52.24
78073;BME280;67281;48.770;11.440;2023-12-22T02:13:12;95719.16;;;13.40;52.46
78073;BME280;67281;48.770;11.440;2023-12-22T02:15:39;95724.94;;;13.36;52.04
78073;BME280;67281;48.770;11.440;2023-12-22T02:18:26;95713.75;;;13.42;52.20
78073;BME280;67281;48.770;11.440;2023-12-22T02:20:54;95706.03;;;13.40;52.07
78073;BME280;67281;48.770;11.440;2023-12-22T02:23:21;95719.00;;;13.42;52.28
78073;BME280;67281;48.770;11.440;2023-12-22T02:25:49;95717.03;;;13.44;52.03
78073;BME280;67281;48.770;11.440;2023-12-22T02:28:21;95713.41;;;13.45;52.48
78073;BME280;67281;48.770;11.440;2023-12-22T02:31:02;95747.78;;;13.43;52.16
78073;BME280;67281;48.770;11.440;2023-12-22T02:33:31;95738.75;;;13.46;52.02
78073;BME280;67281;48.770;11.440;2023-12-22T02:36:03;95727.25;;;13.47;51.65
78073;BME280;67281;48.770;11.440;2023-12-22T02:38:33;95705.03;;;13.41;52.17
78073;BME280;67281;48.770;11.440;2023-12-22T02:41:02;95705.53;;;13.45;52.15
78073;BME280;67281;48.770;11.440;2023-12-22T02:43:29;95708.00;;;13.46;51.79
78073;BME280;67281;48.770;11.440;2023-12-22T02:45:56;95723.94;;;13.45;51.84
78073;BME280;67281;48.770;11.440;2023-12-22T02:48:23;95721.31;;;13.45;52.02
78073;BME280;67281;48.770;11.440;2023-12-22T02:50:50;95703.22;;;13.42;52.59
78073;BME280;67281;48.770;11.440;2023-12-22T02:53:17;95699.13;;;13.47;51.91
78073;BME280;67281;48.770;11.440;2023-12-22T02:55:44;95694.53;;;13.49;51.82
78073;BME280;67281;48.770;11.440;2023-12-22T02:58:11;95703.56;;;13.47;52.02
78073;BME280;67281;48.770;11.440;2023-12-22T03:00:37;95714.91;;;13.47;51.71
78073;BME280;67281;48.770;11.440;2023-12-22T03:03:04;95724.78;;;13.45;52.14
78073;BME280;67281;48.770;11.440;2023-12-22T03:05:31;95725.91;;;13.43;52.26
78073;BME280;67281;48.770;11.440;2023-12-22T03:07:58;95718.19;;;13.25;52.09
78073;BME280;67281;48.770;11.440;2023-12-22T03:10:25;95711.44;;;13.23;52.42
78073;BME280;67281;48.770;11.440;2023-12-22T03:12:52;95694.03;;;13.22;52.89
78073;BME280;67281;48.770;11.440;2023-12-22T03:15:19;95696.97;;;13.19;52.80
78073;BME280;67281;48.770;11.440;2023-12-22T03:17:46;95707.84;;;13.32;52.39
78073;BME280;67281;48.770;11.440;2023-12-22T03:20:13;95717.03;;;13.28;52.48
78073;BME280;67281;48.770;11.440;2023-12-22T03:22:40;95735.47;;;13.36;52.48
78073;BME280;67281;48.770;11.440;2023-12-22T03:25:07;95730.53;;;13.41;52.15
78073;BME280;67281;48.770;11.440;2023-12-22T03:27:34;95729.84;;;13.39;52.12
78073;BME280;67281;48.770;11.440;2023-12-22T03:30:01;95720.50;;;13.36;52.31
78073;BME280;67281;48.770;11.440;2023-12-22T03:32:28;95726.09;;;13.41;51.89
78073;BME280;67281;48.770;11.440;2023-12-22T03:34:55;95719.03;;;13.34;51.93
78073;BME280;67281;48.770;11.440;2023-12-22T03:37:23;95717.06;;;13.36;52.20
78073;BME280;67281;48.770;11.440;2023-12-22T03:39:50;95722.31;;;13.36;52.45
78073;BME280;67281;48.770;11.440;2023-12-22T03:42:17;95732.66;;;13.37;52.09
78073;BME280;67281;48.770;11.440;2023-12-22T03:44:44;95744.81;;;13.38;52.45
78073;BME280;67281;48.770;11.440;2023-12-22T03:47:10;95730.69;;;13.39;52.62
78073;BME280;67281;48.770;11.440;2023-12-22T03:49:37;95724.13;;;13.35;51.96
78073;BME280;67281;48.770;11.440;2023-12-22T03:52:04;95724.13;;;13.35;52.41
78073;BME280;67281;48.770;11.440;2023-12-22T03:54:31;95720.31;;;13.38;51.93
78073;BME280;67281;48.770;11.440;2023-12-22T03:56:58;95719.34;;;13.31;52.43
78073;BME280;67281;48.770;11.440;2023-12-22T03:59:25;95712.94;;;13.33;52.17
78073;BME280;67281;48.770;11.440;2023-12-22T04:01:52;95699.63;;;13.35;52.46
78073;BME280;67281;48.770;11.440;2023-12-22T04:04:19;95712.09;;;13.41;52.37
78073;BME280;67281;48.770;11.440;2023-12-22T04:06:49;95715.72;;;13.40;52.30
78073;BME280;67281;48.770;11.440;2023-12-22T04:09:16;95710.13;;;13.43;52.65
78073;BME280;67281;48.770;11.440;2023-12-22T04:11:43;95716.88;;;13.45;52.15
78073;BME280;67281;48.770;11.440;2023-12-22T04:14:10;95725.75;;;13.44;51.76
78073;BME280;67281;48.770;11.440;2023-12-22T04:16:37;95728.88;;;13.48;52.43
78073;BME280;67281;48.770;11.440;2023-12-22T04:19:04;95732.50;;;13.47;52.53
78073;BME280;67281;48.770;11.440;2023-12-22T04:21:34;95723.13;;;13.44;51.94
78073;BME280;67281;48.770;11.440;2023-12-22T04:24:01;95727.25;;;13.47;52.51
78073;BME280;67281;48.770;11.440;2023-12-22T04:26:29;95745.81;;;13.45;52.35
78073;BME280;67281;48.770;11.440;2023-12-22T04:28:56;95741.69;;;13.43;51.77
78073;BME280;67281;48.770;11.440;2023-12-22T04:31:23;95743.34;;;13.44;51.89
78073;BME280;67281;48.770;11.440;2023-12-22T04:33:50;95741.69;;;13.43;52.23
78073;BME280;67281;48.770;11.440;2023-12-22T04:36:17;95741.38;;;13.38;52.65
78073;BME280;67281;48.770;11.440;2023-12-22T04:38:44;95770.66;;;13.43;52.49
78073;BME280;67281;48.770;11.440;2023-12-22T04:41:11;95779.19;;;13.45;51.91
78073;BME280;67281;48.770;11.440;2023-12-22T04:43:37;95781.34;;;13.41;52.26
78073;BME280;67281;48.770;11.440;2023-12-22T04:46:04;95771.94;;;13.39;52.67
78073;BME280;67281;48.770;11.440;2023-12-22T04:48:31;95771.94;;;13.39;51.87
78073;BME280;67281;48.770;11.440;2023-12-22T04:50:59;95770.97;;;13.40;51.85
78073;BME280;67281;48.770;11.440;2023-12-22T04:53:26;95777.22;;;13.39;51.88
78073;BME280;67281;48.770;11.440;2023-12-22T04:55:53;95773.94;;;13.37;51.70
78073;BME280;67281;48.770;11.440;2023-12-22T04:58:20;95773.13;;;13.36;51.88
78073;BME280;67281;48.770;11.440;2023-12-22T05:00:47;95771.47;;;13.35;52.08
78073;BME280;67281;48.770;11.440;2023-12-22T05:03:14;95768.84;;;13.35;51.86
78073;BME280;67281;48.770;11.440;2023-12-22T05:05:44;95783.66;;;13.36;51.92
78073;BME280;67281;48.770;11.440;2023-12-22T05:08:11;95774.94;;;13.36;51.66
78073;BME280;67281;48.770;11.440;2023-12-22T05:10:38;95779.22;;;13.37;51.78
78073;BME280;67281;48.770;11.440;2023-12-22T05:13:05;95775.56;;;13.38;51.50
78073;BME280;67281;48.770;11.440;2023-12-22T05:15:31;95778.38;;;13.36;52.16
78073;BME280;67281;48.770;11.440;2023-12-22T05:17:58;95776.75;;;13.35;52.23
78073;BME280;67281;48.770;11.440;2023-12-22T05:20:25;95779.84;;;13.39;51.81
78073;BME280;67281;48.770;11.440;2023-12-22T05:22:52;95764.88;;;13.39;51.75
78073;BME280;67281;48.770;11.440;2023-12-22T05:25:19;95772.31;;;13.36;51.88
78073;BME280;67281;48.770;11.440;2023-12-22T05:27:46;95765.41;;;13.35;51.67
78073;BME280;67281;48.770;11.440;2023-12-22T05:30:13;95768.03;;;13.35;52.00
78073;BME280;67281;48.770;11.440;2023-12-22T05:32:40;95780.81;;;13.38;52.03
78073;BME280;67281;48.770;11.440;2023-12-22T05:35:07;95780.66;;;13.39;51.86
78073;BME280;67281;48.770;11.440;2023-12-22T05:37:34;95799.59;;;13.35;51.82
78073;BME280;67281;48.770;11.440;2023-12-22T05:40:01;95806.78;;;13.25;51.71
78073;BME280;67281;48.770;11.440;2023-12-22T05:42:28;95808.75;;;13.23;52.53
78073;BME280;67281;48.770;11.440;2023-12-22T05:44:58;95801.22;;;13.28;52.29
78073;BME280;67281;48.770;11.440;2023-12-22T05:47:25;95795.13;;;13.27;51.69
78073;BME280;67281;48.770;11.440;2023-12-22T05:49:52;95785.09;;;13.23;51.74
78073;BME280;67281;48.770;11.440;2023-12-22T05:52:19;95777.22;;;13.31;51.71
78073;BME280;67281;48.770;11.440;2023-12-22T05:54:46;95789.72;;;13.29;52.18
78073;BME280;67281;48.770;11.440;2023-12-22T05:57:13;95790.00;;;13.18;51.84
78073;BME280;67281;48.770;11.440;2023-12-22T05:59:40;95774.88;;;13.20;52.08
78073;BME280;67281;48.770;11.440;2023-12-22T06:02:07;95767.34;;;13.25;52.19
78073;BME280;67281;48.770;11.440;2023-12-22T06:04:34;95781.97;;;13.27;51.70
78073;BME280;67281;48.770;11.440;2023-12-22T06:07:01;95793.84;;;13.31;51.69
78073;BME280;67281;48.770;11.440;2023-12-22T06:09:28;95762.41;;;13.30;52.02
78073;BME280;67281;48.770;11.440;2023-12-22T06:11:55;95762.41;;;13.30;52.16
78073;BME280;67281;48.770;11.440;2023-12-22T06:14:22;95772.28;;;13.28;51.88
78073;BME280;67281;48.770;11.440;2023-12-22T06:16:49;95782.97;;;13.26;52.17
78073;BME280;67281;48.770;11.440;2023-12-22T06:19:17;95785.44;;;13.28;51.71
78073;BME280;67281;48.770;11.440;2023-12-22T06:21:44;95780.19;;;13.28;52.03
78073;BME280;67281;48.770;11.440;2023-12-22T06:24:11;95766.34;;;13.26;52.03
78073;BME280;67281;48.770;11.440;2023-12-22T06:26:38;95778.03;;;13.23;52.16
78073;BME280;67281;48.770;11.440;2023-12-22T06:29:04;95789.03;;;13.27;51.57
78073;BME280;67281;48.770;11.440;2023-12-22T06:31:31;95784.09;;;13.24;51.83
78073;BME280;67281;48.770;11.440;2023-12-22T06:33:58;95790.84;;;13.26;52.02
78073;BME280;67281;48.770;11.440;2023-12-22T06:36:29;95796.13;;;13.26;51.67
78073;BME280;67281;48.770;11.440;2023-12-22T06:38:57;95802.88;;;13.29;51.33
78073;BME280;67281;48.770;11.440;2023-12-22T06:41:28;95790.69;;;13.28;51.68
78073;BME280;67281;48.770;11.440;2023-12-22T06:43:57;95795.28;;;13.26;51.88
78073;BME280;67281;48.770;11.440;2023-12-22T06:46:27;95793.66;;;13.25;51.40
78073;BME280;67281;48.770;11.440;2023-12-22T06:48:56;95801.03;;;13.21;51.46
78073;BME280;67281;48.770;11.440;2023-12-22T06:51:29;95781.13;;;13.19;51.58
78073;BME280;67281;48.770;11.440;2023-12-22T06:54:00;95779.81;;;13.23;51.31
78073;BME280;67281;48.770;11.440;2023-12-22T06:56:31;95787.31;;;13.09;51.53
78073;BME280;67281;48.770;11.440;2023-12-22T06:58:58;95793.25;;;13.11;51.56
78073;BME280;67281;48.770;11.440;2023-12-22T07:01:30;95811.19;;;13.16;51.92
78073;BME280;67281;48.770;11.440;2023-12-22T07:04:01;95819.59;;;13.20;52.01
78073;BME280;67281;48.770;11.440;2023-12-22T07:06:31;95824.63;;;13.13;51.67
78073;BME280;67281;48.770;11.440;2023-12-22T07:11:48;95848.16;;;13.14;51.88
78073;BME280;67281;48.770;11.440;2023-12-22T07:14:17;95848.53;;;13.20;52.19
78073;BME280;67281;48.770;11.440;2023-12-22T07:16:44;95854.78;;;13.19;51.75
78073;BME280;67281;48.770;11.440;2023-12-22T07:19:11;95849.66;;;13.17;51.63
78073;BME280;67281;48.770;11.440;2023-12-22T07:21:41;95855.44;;;13.21;51.93
78073;BME280;67281;48.770;11.440;2023-12-22T07:24:12;95871.88;;;13.23;51.95
78073;BME280;67281;48.770;11.440;2023-12-22T07:26:41;95890.28;;;13.23;52.03
78073;BME280;67281;48.770;11.440;2023-12-22T07:29:08;95886.34;;;13.19;51.98
78073;BME280;67281;48.770;11.440;2023-12-22T07:31:36;95864.97;;;13.22;52.06
78073;BME280;67281;48.770;11.440;2023-12-22T07:34:03;95868.28;;;13.24;51.78
78073;BME280;67281;48.770;11.440;2023-12-22T07:36:30;95897.06;;;13.25;51.74
78073;BME280;67281;48.770;11.440;2023-12-22T07:38:57;95870.59;;;13.27;51.77
78073;BME280;67281;48.770;11.440;2023-12-22T07:41:26;95867.81;;;13.28;51.75
78073;BME280;67281;48.770;11.440;2023-12-22T07:43:53;95868.47;;;13.30;51.62
78073;BME280;67281;48.770;11.440;2023-12-22T07:46:20;95869.28;;;13.31;51.86
78073;BME280;67281;48.770;11.440;2023-12-22T07:48:49;95880.94;;;13.28;52.17
78073;BME280;67281;48.770;11.440;2023-12-22T07:51:18;95876.50;;;13.29;52.02
78073;BME280;67281;48.770;11.440;2023-12-22T07:53:44;95869.75;;;13.26;51.67
78073;BME280;67281;48.770;11.440;2023-12-22T07:56:11;95874.66;;;13.21;51.90
78073;BME280;67281;48.770;11.440;2023-12-22T07:58:39;95867.44;;;13.23;51.51
78073;BME280;67281;48.770;11.440;2023-12-22T08:01:06;95877.97;;;13.23;51.99
78073;BME280;67281;48.770;11.440;2023-12-22T08:03:33;95880.78;;;13.30;51.97
78073;BME280;67281;48.770;11.440;2023-12-22T08:06:00;95884.75;;;13.08;51.71
78073;BME280;67281;48.770;11.440;2023-12-22T08:08:28;95894.38;;;13.17;52.21
78073;BME280;67281;48.770;11.440;2023-12-22T08:10:54;95886.69;;;13.24;52.16
78073;BME280;67281;48.770;11.440;2023-12-22T08:13:22;95902.81;;;13.29;51.43
78073;BME280;67281;48.770;11.440;2023-12-22T08:15:48;95900.34;;;13.27;52.01
78073;BME280;67281;48.770;11.440;2023-12-22T08:18:15;95917.31;;;13.33;51.61
78073;BME280;67281;48.770;11.440;2023-12-22T08:20:42;95924.53;;;13.31;51.87
78073;BME280;67281;48.770;11.440;2023-12-22T08:23:13;95920.88;;;13.24;51.87
78073;BME280;67281;48.770;11.440;2023-12-22T08:25:40;95932.44;;;13.31;51.42
78073;BME280;67281;48.770;11.440;2023-12-22T08:28:10;95932.38;;;13.23;52.06
78073;BME280;67281;48.770;11.440;2023-12-22T08:30:40;95932.63;;;13.11;51.97
78073;BME280;67281;48.770;11.440;2023-12-22T08:33:06;95927.59;;;13.00;52.35
78073;BME280;67281;48.770;11.440;2023-12-22T08:35:33;95935.81;;;12.97;52.29
78073;BME280;67281;48.770;11.440;2023-12-22T08:38:02;95937.56;;;13.14;51.76
78073;BME280;67281;48.770;11.440;2023-12-22T08:40:29;95935.00;;;13.23;51.91
78073;BME280;67281;48.770;11.440;2023-12-22T08:42:57;95942.59;;;13.26;52.04
78073;BME280;67281;48.770;11.440;2023-12-22T08:45:28;95956.44;;;13.10;52.17
78073;BME280;67281;48.770;11.440;2023-12-22T08:47:56;95954.25;;;13.23;52.14
78073;BME280;67281;48.770;11.440;2023-12-22T08:50:24;95956.38;;;13.20;52.03
78073;BME280;67281;48.770;11.440;2023-12-22T08:52:51;95954.72;;;13.19;51.96
78073;BME280;67281;48.770;11.440;2023-12-22T08:55:18;95969.88;;;13.25;51.95
78073;BME280;67281;48.770;11.440;2023-12-22T08:57:45;95983.69;;;13.27;51.84
78073;BME280;67281;48.770;11.440;2023-12-22T09:00:25;95970.09;;;13.13;51.72
78073;BME280;67281;48.770;11.440;2023-12-22T09:02:51;95958.91;;;13.11;52.27
78073;BME280;67281;48.770;11.440;2023-12-22T09:05:19;95981.38;;;13.24;52.12
78073;BME280;67281;48.770;11.440;2023-12-22T09:07:47;95970.03;;;13.23;51.65
78073;BME280;67281;48.770;11.440;2023-12-22T09:10:15;95979.47;;;13.34;52.19
78073;BME280;67281;48.770;11.440;2023-12-22T09:12:42;95967.09;;;13.26;52.02
78073;BME280;67281;48.770;11.440;2023-12-22T09:15:09;95977.97;;;13.31;51.79
78073;BME280;67281;48.770;11.440;2023-12-22T09:17:36;95978.16;;;13.38;51.97
78073;BME280;67281;48.770;11.440;2023-12-22T09:20:03;95983.25;;;13.39;51.67
78073;BME280;67281;48.770;11.440;2023-12-22T09:22:30;95965.81;;;13.38;52.01
78073;BME280;67281;48.770;11.440;2023-12-22T09:24:57;95956.94;;;13.39;52.06
78073;BME280;67281;48.770;11.440;2023-12-22T09:27:24;95967.97;;;13.43;51.61
78073;BME280;67281;48.770;11.440;2023-12-22T09:29:55;95973.94;;;13.53;51.28
78073;BME280;67281;48.770;11.440;2023-12-22T09:32:22;95966.09;;;13.61;51.85
78073;BME280;67281;48.770;11.440;2023-12-22T09:34:49;95956.38;;;13.62;52.12
78073;BME280;67281;48.770;11.440;2023-12-22T09:37:15;95966.72;;;13.55;52.43
78073;BME280;67281;48.770;11.440;2023-12-22T09:39:42;95967.22;;;13.59;52.47
78073;BME280;67281;48.770;11.440;2023-12-22T09:42:09;95959.66;;;13.56;52.93
78073;BME280;67281;48.770;11.440;2023-12-22T09:44:37;95958.31;;;13.52;52.59
78073;BME280;67281;48.770;11.440;2023-12-22T09:47:05;95951.56;;;13.49;52.17
78073;BME280;67281;48.770;11.440;2023-12-22T09:49:34;95947.63;;;13.53;52.33
78073;BME280;67281;48.770;11.440;2023-12-22T09:52:02;95943.31;;;13.44;51.95
78073;BME280;67281;48.770;11.440;2023-12-22T09:54:32;95946.31;;;13.49;51.77
78073;BME280;67281;48.770;11.440;2023-12-22T09:56:59;95935.78;;;13.49;52.49
78073;BME280;67281;48.770;11.440;2023-12-22T09:59:46;95940.38;;;13.47;52.17
78073;BME280;67281;48.770;11.440;2023-12-22T10:02:15;95937.75;;;13.47;51.82
78073;BME280;67281;48.770;11.440;2023-12-22T10:04:42;95938.22;;;13.42;51.75
78073;BME280;67281;48.770;11.440;2023-12-22T10:07:09;95936.41;;;13.43;51.96
78073;BME280;67281;48.770;11.440;2023-12-22T10:09:41;95937.38;;;13.42;52.17
78073;BME280;67281;48.770;11.440;2023-12-22T10:12:09;95919.94;;;13.33;52.15
78073;BME280;67281;48.770;11.440;2023-12-22T10:14:37;95939.69;;;13.37;52.00
78073;BME280;67281;48.770;11.440;2023-12-22T10:17:06;95918.44;;;13.30;52.32
78073;BME280;67281;48.770;11.440;2023-12-22T10:19:33;95915.00;;;13.30;52.07
78073;BME280;67281;48.770;11.440;2023-12-22T10:22:00;95917.28;;;13.25;52.42
78073;BME280;67281;48.770;11.440;2023-12-22T10:27:04;95926.50;;;13.29;52.46
78073;BME280;67281;48.770;11.440;2023-12-22T10:29:31;95917.63;;;13.38;51.98
78073;BME280;67281;48.770;11.440;2023-12-22T10:32:03;95923.25;;;13.35;52.96
78073;BME280;67281;48.770;11.440;2023-12-22T10:34:34;95915.34;;;13.43;53.13
78073;BME280;67281;48.770;11.440;2023-12-22T10:37:02;95897.09;;;13.41;53.44
78073;BME280;67281;48.770;11.440;2023-12-22T10:39:29;95902.53;;;13.48;52.96
78073;BME280;67281;48.770;11.440;2023-12-22T10:41:57;95897.75;;;13.43;53.09
78073;BME280;67281;48.770;11.440;2023-12-22T10:44:26;95903.69;;;13.45;53.08
78073;BME280;67281;48.770;11.440;2023-12-22T10:46:53;95886.75;;;13.48;52.83
78073;BME280;67281;48.770;11.440;2023-12-22T10:49:23;95907.19;;;13.54;52.33
78073;BME280;67281;48.770;11.440;2023-12-22T10:51:51;95919.16;;;13.48;52.41
78073;BME280;67281;48.770;11.440;2023-12-22T10:54:19;95907.78;;;13.40;52.84
78073;BME280;67281;48.770;11.440;2023-12-22T10:56:46;95910.66;;;13.21;52.56
78073;BME280;67281;48.770;11.440;2023-12-22T10:59:18;95911.53;;;13.29;52.31
78073;BME280;67281;48.770;11.440;2023-12-22T11:01:51;95909.25;;;13.42;52.36
78073;BME280;67281;48.770;11.440;2023-12-22T11:04:21;95908.13;;;13.45;52.34
78073;BME280;67281;48.770;11.440;2023-12-22T11:06:49;95905.84;;;13.50;52.11
78073;BME280;67281;48.770;11.440;2023-12-22T11:09:21;95896.94;;;13.43;52.43
78073;BME280;67281;48.770;11.440;2023-12-22T11:11:48;95887.25;;;13.43;52.70
78073;BME280;67281;48.770;11.440;2023-12-22T11:14:17;95897.78;;;13.52;52.50
78073;BME280;67281;48.770;11.440;2023-12-22T11:16:44;95891.34;;;13.46;52.54
78073;BME280;67281;48.770;11.440;2023-12-22T11:19:14;95871.59;;;13.42;52.39
78073;BME280;67281;48.770;11.440;2023-12-22T11:21:43;95882.13;;;13.34;52.43
78073;BME280;67281;48.770;11.440;2023-12-22T11:24:12;95874.25;;;13.34;53.02
78073;BME280;67281;48.770;11.440;2023-12-22T11:26:41;95864.50;;;13.26;52.76
78073;BME280;67281;48.770;11.440;2023-12-22T11:29:09;95872.34;;;13.18;53.28
78073;BME280;67281;48.770;11.440;2023-12-22T11:31:37;95864.31;;;13.20;53.30
78073;BME280;67281;48.770;11.440;2023-12-22T11:34:04;95865.97;;;13.21;52.97
78073;BME280;67281;48.770;11.440;2023-12-22T11:36:43;95872.09;;;13.29;52.61
78073;BME280;67281;48.770;11.440;2023-12-22T11:39:10;95871.22;;;13.21;53.04
78073;BME280;67281;48.770;11.440;2023-12-22T11:41:37;95866.72;;;13.13;52.68
78073;BME280;67281;48.770;11.440;2023-12-22T11:44:06;95853.78;;;13.20;52.77
78073;BME280;67281;48.770;11.440;2023-12-22T11:46:33;95838.56;;;13.05;53.41
78073;BME280;67281;48.770;11.440;2023-12-22T11:49:01;95831.81;;;13.03;53.63
78073;BME280;67281;48.770;11.440;2023-12-22T11:51:33;95833.66;;;13.10;53.09
78073;BME280;67281;48.770;11.440;2023-12-22T11:54:03;95828.09;;;13.13;52.87
78073;BME280;67281;48.770;11.440;2023-12-22T11:56:29;95825.78;;;13.10;52.74
78073;BME280;67281;48.770;11.440;2023-12-22T11:58:58;95811.97;;;13.08;53.10
78073;BME280;67281;48.770;11.440;2023-12-22T12:01:26;95823.66;;;13.14;52.96
78073;BME280;67281;48.770;11.440;2023-12-22T12:03:57;95822.63;;;13.07;53.08
78073;BME280;67281;48.770;11.440;2023-12-22T12:08:57;95800.59;;;13.00;52.98
78073;BME280;67281;48.770;11.440;2023-12-22T12:14:43;95811.56;;;12.95;53.22
78073;BME280;67281;48.770;11.440;2023-12-22T12:17:10;95815.88;;;13.04;53.54
78073;BME280;67281;48.770;11.440;2023-12-22T12:19:39;95813.88;;;12.98;53.54
78073;BME280;67281;48.770;11.440;2023-12-22T12:22:06;95821.47;;;13.01;53.02
78073;BME280;67281;48.770;11.440;2023-12-22T12:24:36;95802.09;;;13.10;52.94
78073;BME280;67281;48.770;11.440;2023-12-22T12:27:03;95801.75;;;13.05;53.25
78073;BME280;67281;48.770;11.440;2023-12-22T12:29:32;95788.13;;;13.10;53.35
78073;BME280;67281;48.770;11.440;2023-12-22T12:32:04;95792.78;;;13.16;53.04
78073;BME280;67281;48.770;11.440;2023-12-22T12:34:32;95786.91;;;13.22;53.13
78073;BME280;67281;48.770;11.440;2023-12-22T12:37:00;95790.59;;;13.11;53.03
78073;BME280;67281;48.770;11.440;2023-12-22T12:39:30;95785.66;;;13.08;53.48
78073;BME280;67281;48.770;11.440;2023-12-22T12:42:00;95786.00;;;13.13;53.13
78073;BME280;67281;48.770;11.440;2023-12-22T12:44:30;95781.06;;;13.10;53.84
78073;BME280;67281;48.770;11.440;2023-12-22T12:46:59;95786.56;;;13.17;53.54
78073;BME280;67281;48.770;11.440;2023-12-22T12:49:27;95786.97;;;13.04;53.69
78073;BME280;67281;48.770;11.440;2023-12-22T12:51:57;95783.69;;;13.10;53.15
78073;BME280;67281;48.770;11.440;2023-12-22T12:54:25;95771.44;;;13.19;53.00
78073;BME280;67281;48.770;11.440;2023-12-22T12:56:52;95759.81;;;12.96;54.17
78073;BME280;67281;48.770;11.440;2023-12-22T12:59:20;95737.13;;;12.95;54.46
78073;BME280;67281;48.770;11.440;2023-12-22T13:01:48;95758.06;;;13.12;53.25
78073;BME280;67281;48.770;11.440;2023-12-22T13:04:15;95758.53;;;13.08;53.61